SABE/AEP METAR and TAF weather

Enter ICAO airport designator
Station Type Date Time Source
SABE METAR 2019/08/17 11:34 UTC NOAA

SABE 171134Z 13010KT 2000 TSRA BR SCT010 FEW040CB OVC050 14/12 Q1007 NOSIG


Station Type Date Time Source
SABE Decoded METAR 2019/08/17 11:34 UTC NOAA

Station name not available
Aug 17, 2019 - 07:34 AM EDT / 2019.08.17 1134 UTC
Wind: from the SE (130 degrees) at 12 MPH (10 KT):0
Visibility: 1 mile(s):0
Sky conditions: overcast
Weather: rain with thunder; mist; Cumulonimbus clouds observed
Temperature: 57 F (14 C)
Dew Point: 53 F (12 C)
Relative Humidity: 87%
Pressure (altimeter): 29.74 in. Hg (1007 hPa)
ob: SABE 171134Z 13010KT 2000 TSRA BR SCT010 FEW040CB OVC050 14/12 Q1007 NOSIG
cycle: 11

Station Type Date Time Source
SABE TAF 2019/08/17 12:18 UTC NOAA

TAF SABE 171100Z 1712/1812 15010KT 4000 TSRA BR SCT025 OVC035 FEW045CB TX17/1718Z TN08/1810Z
BECMG 1714/1717 6000 -RADZ BR SCT030 BKN040
BECMG 1718/1721 18010KT 9999 BKN030
BECMG 1720/1723 CAVOK

Example: see airport list